Tiempo atmosférico en la estación meteorológica de Bera, Navarra (78 m.)

Fecha
DESCASC
Temp. máxima en grados centígrados (hora)
DESCASC
Temp. mínima en grados centígrados (hora)
DESCASC
Temp. media en grados centígrados
DESCASC
Racha de viento máxima en m/sg (hora)
DESCASC
Velocidad máxima media en intervalos de 10 minutos(hora)
DESCASC
Precipitaciones diarias en mm
DESCASC
Precipitaciones de 00:00 a 06:00 en mm
DESCASC
Precipitaciones de 06:00 a 12:00 en mm
DESCASC
Precipitaciones de 12:00 a 18:00 en mm
DESCASC
Precipitaciones de 18:00 a 24:00 en mm
DESCASC
17-08-2017 28 (15:20) 15.3 (00:50) 21.7 6.67 (16:30) 3.89 (17:50) 0 0 0 0 0
16-08-2017 23.8 (16:10) 15.8 (23:59) 19.8 4.44 (18:10) 1.94 (18:10) 0.4 0.4 0 0 0
15-08-2017 22.9 (14:30) 18.5 (00:00) 20.7 4.72 (14:50) 2.22 (14:40) 2 0 2 0 0
14-08-2017 36.9 (17:10) 14.9 (01:50) 25.9 9.17 (13:10) 3.61 (13:10) 1.6 0 0 0 1.6
13-08-2017 25.7 (15:50) 14 (00:00) 19.9 6.94 (16:20) 2.78 (18:30) 0 0 0 0 0
12-08-2017 24.3 (15:30) 11.7 (00:00) 18 6.39 (16:20) 2.78 (18:50) 0 0 0 0 0
11-08-2017 22.6 (15:50) 10.8 (00:00) 16.7 8.89 (15:00) 3.89 (13:00) 0.2 0.2 0 0 0
10-08-2017 19.6 (15:10) 13.6 (00:00) 16.6 7.78 (17:30) 3.89 (17:30) 24.8 10 11.8 2.8 0.2
09-08-2017 21 (16:10) 14.1 (00:00) 17.6 9.17 (17:40) 4.17 (17:40) 9.8 0.2 0.4 1.6 7.6
08-08-2017 20.8 (13:30) 15.6 (00:00) 18.2 8.06 (01:10) 3.61 (04:10) 12 7.2 3.8 1 0
07-08-2017 26 (14:20) 14.1 (00:00) 20.1 6.11 (19:10) 2.78 (14:30) 0 0 0 0 0
06-08-2017 22.9 (15:20) 15.3 (00:00) 19.1 5.28 (14:50) 2.5 (14:50) 0 0 0 0 0
05-08-2017 21.3 (11:40) 18 (00:00) 19.6 6.11 (12:50) 2.5 (14:10) 1.2 0 0.2 0.6 0.4
04-08-2017 30.4 (15:50) 18.2 (00:00) 24.3 5.83 (19:30) 3.06 (19:30) 0 0 0 0 0
03-08-2017 28.9 (13:50) 19 (00:00) 23.9 6.39 (14:50) 3.33 (14:50) 0 0 0 0 0
02-08-2017 27.3 (17:10) 15.9 (00:00) 21.6 6.67 (17:30) 3.89 (17:40) 0 0 0 0 0
01-08-2017 23.3 (17:20) 18.4 (00:00) 20.8 4.72 (17:30) 2.22 (18:30) 0 0 0 0 0
31-07-2017 24 (14:20) 17.8 (00:00) 20.9 5 (18:10) 2.22 (16:30) 0 0 0 0 0
30-07-2017 25.2 (13:10) 17.9 (00:00) 21.6 6.39 (13:50) 2.78 (14:00) 0 0 0 0 0
29-07-2017 28.8 (16:40) 17 (00:00) 22.9 5.28 (17:00) 2.78 (17:00) 0.2 0 0.2 0 0
28-07-2017 25.6 (18:00) 19.8 (00:00) 22.7 5 (14:30) 2.78 (16:00) 0.2 0 0.2 0 0
27-07-2017 29 (14:50) 14.8 (00:00) 21.9 6.11 (15:00) 3.06 (15:00) 0 0 0 0 0
26-07-2017 26.1 (15:50) 15.3 (00:00) 20.7 5.83 (19:40) 3.33 (19:40) 0 0 0 0 0
25-07-2017 20.7 (12:50) 15.5 (00:00) 18.1 6.39 (15:50) 2.5 (15:00) 1.4 0.8 0.6 0 0
24-07-2017 21.1 (15:10) 16.9 (00:00) 19 8.33 (14:10) 3.61 (13:30) 21.8 2.2 6.6 9.4 3.6
23-07-2017 24 (14:20) 16.8 (00:00) 20.4 6.11 (15:10) 2.78 (17:40) 0 0 0 0 0
22-07-2017 24.5 (13:40) 12.9 (00:00) 18.7 6.11 (15:00) 2.78 (15:00) 0.8 0 0.2 0 0.6
21-07-2017 20.7 (15:20) 14.5 (00:00) 17.6 3.33 (16:30) 1.67 (16:20) 0.2 0.2 0 0 0
20-07-2017 19.8 (14:30) 17 (00:00) 18.4 4.72 (15:30) 2.22 (16:20) 1.2 0 0.8 0.2 0.2
19-07-2017 23.6 (18:30) 18.9 (00:00) 21.3 5 (19:00) 2.22 (12:30) 0.2 0 0.2 0 0

Gráficas

Temp. máximas Temp. mínimas Temp. medias Precipitaciones Rachas de viento máximas Velocidades máximas media en intervalos de 10 minutos

Datos horarios

Fecha y hora oficial Temperatura (ºC) Velocidad del viento (km/h) Dirección del viento Racha (km/h) Dirección de racha Precipitación (mm) Presión (hPa) Tendencia (hPa) Humedad (%)
2017-08-17 23:00:00 19.2 2 Sur 5 Sur 0 -- -- 88
2017-08-17 22:00:00 20.5 3 Noroeste 8 Oeste 0 -- -- 87
2017-08-17 21:00:00 22.4 3 Noroeste 9 Sudeste 0 -- -- 80
2017-08-17 20:00:00 24.6 6 Nordeste 13 Nordeste 0 -- -- 69
2017-08-17 19:00:00 25.4 8 Noroeste 21 Noroeste 0 -- -- 66
2017-08-17 18:00:00 25.8 11 Noroeste 24 Noroeste 0 -- -- 64
2017-08-17 17:00:00 26.4 14 Noroeste 24 Noroeste 0 -- -- 63
2017-08-17 16:00:00 27.4 11 Norte 23 Norte 0 -- -- 60
2017-08-17 15:00:00 27.9 6 Norte 15 Norte 0 -- -- 60
2017-08-17 14:00:00 27.1 7 Norte 15 Noroeste 0 -- -- 59
2017-08-17 13:00:00 26.4 4 Noroeste 9 Oeste 0 -- -- 53
2017-08-17 12:00:00 23.9 2 Sur 5 Sudoeste 0 -- -- 66
2017-08-17 11:00:00 20.9 2 Nordeste 5 Norte 0 -- -- 80
2017-08-17 10:00:00 17.7 2 Sur 5 Sudeste 0 -- -- 92
2017-08-17 09:00:00 16.2 0 Calma 4 Sudoeste 0 -- -- 95
2017-08-17 08:00:00 15.7 0 Calma 4 Sudoeste 0 -- -- 96
2017-08-17 07:00:00 15.8 0 Calma 5 Oeste 0 -- -- 96
2017-08-17 06:00:00 16 0 Calma 3 Nordeste 0 -- -- 97
2017-08-17 05:00:00 16.1 0 Calma 5 Sudeste 0 -- -- 97
2017-08-17 04:00:00 16.3 0 Calma 3 Nordeste 0 -- -- 97
2017-08-17 03:00:00 16.3 0 Calma 2 Nordeste 0 -- -- 96
2017-08-17 02:00:00 16.2 0 Calma 4 Nordeste 0 -- -- 96
2017-08-17 01:00:00 15.5 2 Sudeste 4 Sudeste 0 -- -- 96
2017-08-17 00:00:00 15.8 0 Calma 4 Este 0 -- -- 94
2017-08-16 23:00:00 16.7 3 Sudeste 6 Sudeste 0 -- -- 93
2017-08-16 22:00:00 17.9 2 Sudeste 4 Oeste 0 -- -- 89
2017-08-16 21:00:00 19.8 3 Sudeste 5 Nordeste 0 -- -- 85
2017-08-16 20:00:00 22.5 5 Nordeste 10 Nordeste 0 -- -- 73
2017-08-16 19:00:00 23.5 6 Noroeste 16 Noroeste 0 -- -- 69
2017-08-16 18:00:00 23.4 5 Norte 15 Nordeste 0 -- -- 69
2017-08-16 17:00:00 23.3 5 Norte 13 Noroeste 0 -- -- 69
2017-08-16 16:00:00 23.7 6 Norte 13 Noroeste 0 -- -- 68
2017-08-16 15:00:00 22.8 3 Oeste 10 Sudoeste 0 -- -- 73
2017-08-16 14:00:00 21.9 4 Oeste 9 Sudoeste 0 -- -- 82
2017-08-16 13:00:00 22.3 0 Calma 0 Calma 0 -- -- 79
2017-08-16 12:00:00 21.1 0 Calma 0 Calma 0 -- -- 84
2017-08-16 11:00:00 20 0 Calma 0 Calma 0 -- -- 89
2017-08-16 10:00:00 19.2 0 Calma 0 Calma 0 -- -- 94
2017-08-16 09:00:00 18.6 0 Calma 0 Calma 0 -- -- 95
2017-08-16 08:00:00 18.5 0 Calma 0 Calma 0 -- -- 95
2017-08-16 07:00:00 18.6 0 Calma 0 Calma 0 -- -- 95
2017-08-16 06:00:00 18.6 0 Calma 0 Calma 0 -- -- 95
2017-08-16 05:00:00 18.7 0 Calma 0 Calma 0.2 -- -- 94
2017-08-16 04:00:00 18.8 0 Calma 3 Sudoeste 0 -- -- 95
2017-08-16 03:00:00 18.9 3 Oeste 4 Oeste 0 -- -- 94
2017-08-16 02:00:00 19.1 2 Oeste 3 Oeste 0 -- -- 94
2017-08-16 01:00:00 19.2 2 Sudoeste 6 Sur 0.2 -- -- 93
2017-08-16 00:00:00 19.6 0 Calma 0 Calma 0 -- -- 93
2017-08-15 23:00:00 19.8 0 Calma 2 Sudeste 0 -- -- 92
2017-08-15 22:00:00 19.9 0 Calma 3 Sur 0 -- -- 91
2017-08-15 21:00:00 20.3 2 Sudoeste 5 Sudoeste 0 -- -- 89
2017-08-15 20:00:00 20.6 4 Sudoeste 6 Sudoeste 0 -- -- 87
2017-08-15 19:00:00 21 3 Noroeste 7 Noroeste 0 -- -- 82
2017-08-15 18:00:00 21.2 5 Norte 13 Norte 0 -- -- 81
2017-08-15 17:00:00 21.4 4 Norte 13 Norte 0 -- -- 80
2017-08-15 16:00:00 21.9 5 Norte 17 Noroeste 0 -- -- 78
2017-08-15 15:00:00 22.5 5 Noroeste 17 Noroeste 0 -- -- 76
2017-08-15 14:00:00 22.6 5 Noroeste 15 Norte 0 -- -- 76
2017-08-15 13:00:00 22.4 6 Norte 14 Norte 0 -- -- 79
2017-08-15 12:00:00 22.3 2 Sudeste 7 Este 0 -- -- 84
2017-08-15 11:00:00 20.3 4 Sudoeste 14 Sudoeste 1 -- -- 91
2017-08-15 10:00:00 20 0 Calma 2 Nordeste 0.6 -- -- 96
2017-08-15 09:00:00 19.7 0 Calma 2 Este 0.4 -- -- 95
2017-08-15 08:00:00 19.3 0 Calma 0 Calma 0 -- -- 95
2017-08-15 07:00:00 19.3 0 Calma 0 Calma 0 -- -- 95
2017-08-15 06:00:00 19.2 0 Calma 0 Calma 0 -- -- 95
2017-08-15 05:00:00 19.2 0 Calma 3 Sudeste 0 -- -- 95
2017-08-15 04:00:00 19 0 Calma 4 Sudeste 0 -- -- 95
2017-08-15 03:00:00 18.5 0 Calma 4 Sudoeste 0 -- -- 94
2017-08-15 02:00:00 19.1 0 Calma 6 Este 0 -- -- 94
2017-08-15 01:00:00 19.2 2 Sudeste 6 Sudeste 0 -- -- 93
2017-08-15 00:00:00 19.5 3 Sudoeste 7 Nordeste 0 -- -- 93
2017-08-14 23:00:00 20.2 3 Sudeste 10 Este 0 -- -- 91
2017-08-14 22:00:00 21.6 3 Este 13 Sudoeste 1.6 -- -- 87
2017-08-14 21:00:00 25.9 12 Oeste 28 Oeste 0 -- -- 58
2017-08-14 20:00:00 28.3 6 Sudeste 17 Sudoeste 0 -- -- 57
2017-08-14 19:00:00 33.5 2 Oeste 8 Sudoeste 0 -- -- 53
2017-08-14 18:00:00 36.5 5 Sur 13 Sudoeste 0 -- -- 34
2017-08-14 17:00:00 36.7 3 Sur 21 Sur 0 -- -- 32
2017-08-14 16:00:00 35.7 7 Sur 23 Sur 0 -- -- 31
2017-08-14 15:00:00 34.3 10 Sur 30 Sur 0 -- -- 34
2017-08-14 14:00:00 33.2 6 Sur 33 Sur 0 -- -- 38
2017-08-14 13:00:00 31.9 7 Sudeste 26 Sur 0 -- -- 40
2017-08-14 12:00:00 30.2 6 Sur 23 Sur 0 -- -- 42
2017-08-14 11:00:00 27.9 7 Sudeste 28 Sudeste 0 -- -- 47
2017-08-14 10:00:00 19.8 2 Nordeste 6 Nordeste 0 -- -- 88
2017-08-14 09:00:00 15.5 0 Calma 5 Este 0 -- -- 97
2017-08-14 08:00:00 15.2 3 Sudeste 5 Este 0 -- -- 97
2017-08-14 07:00:00 15.5 2 Este 5 Este 0 -- -- 97
2017-08-14 06:00:00 15.6 2 Sudeste 5 Sudeste 0 -- -- 97
2017-08-14 05:00:00 15.7 0 Calma 2 Noroeste 0 -- -- 97
2017-08-14 04:00:00 15.8 0 Calma 3 Este 0 -- -- 97
2017-08-14 03:00:00 15.3 0 Calma 3 Sudeste 0 -- -- 96
2017-08-14 02:00:00 15 0 Calma 3 Sudeste 0 -- -- 95
2017-08-14 01:00:00 15.3 0 Calma 4 Sudeste 0 -- -- 93
2017-08-14 00:00:00 16 0 Calma 3 Sudeste 0 -- -- 92
2017-08-13 23:00:00 17 0 Calma 5 Sudeste 0 -- -- 90
2017-08-13 22:00:00 18.6 2 Sudeste 5 Sudeste 0 -- -- 86
2017-08-13 21:00:00 21.3 3 Noroeste 14 Norte 0 -- -- 76
2017-08-13 20:00:00 22.7 9 Noroeste 19 Noroeste 0 -- -- 70
2017-08-13 19:00:00 24.2 10 Noroeste 19 Noroeste 0 -- -- 66
2017-08-13 18:00:00 25.2 8 Norte 20 Noroeste 0 -- -- 66
2017-08-13 17:00:00 25.4 8 Norte 25 Noroeste 0 -- -- 65
2017-08-13 16:00:00 25.7 10 Noroeste 20 Norte 0 -- -- 63
2017-08-13 15:00:00 24.8 6 Norte 18 Noroeste 0 -- -- 68
2017-08-13 14:00:00 24 8 Norte 19 Noroeste 0 -- -- 66
2017-08-13 13:00:00 23.8 8 Noroeste 15 Noroeste 0 -- -- 65
2017-08-13 12:00:00 22.6 3 Sur 7 Sur 0 -- -- 68
2017-08-13 11:00:00 19.2 0 Calma 4 Noroeste 0 -- -- 82
2017-08-13 10:00:00 15.3 0 Calma 4 Nordeste 0 -- -- 97
2017-08-13 09:00:00 14.6 0 Calma 4 Norte 0 -- -- 98
2017-08-13 08:00:00 14.3 0 Calma 4 Sudeste 0 -- -- 98
2017-08-13 07:00:00 14.4 0 Calma 3 Este 0 -- -- 97
2017-08-13 06:00:00 14.4 0 Calma 2 Sudeste 0 -- -- 97
2017-08-13 05:00:00 14.5 0 Calma 3 Sudeste 0 -- -- 97
2017-08-13 04:00:00 14 0 Calma 4 Nordeste 0 -- -- 95
2017-08-13 03:00:00 14.3 0 Calma 4 Nordeste 0 -- -- 95
2017-08-13 02:00:00 14 0 Calma 4 Sudeste 0 -- -- 95
2017-08-13 01:00:00 14 0 Calma 4 Sudeste 0 -- -- 94
2017-08-13 00:00:00 14.8 2 Sudeste 4 Este 0 -- -- 93
2017-08-12 23:00:00 15.6 0 Calma 5 Sudeste 0 -- -- 90
2017-08-12 22:00:00 17.4 3 Sudeste 11 Noroeste 0 -- -- 85
2017-08-12 21:00:00 19.7 5 Noroeste 21 Noroeste 0 -- -- 77
2017-08-12 20:00:00 21 8 Noroeste 23 Noroeste 0 -- -- 72
2017-08-12 19:00:00 23.1 10 Norte 20 Noroeste 0 -- -- 65
2017-08-12 18:00:00 23.3 6 Norte 17 Noroeste 0 -- -- 65
2017-08-12 17:00:00 23.9 9 Norte 23 Noroeste 0 -- -- 60
2017-08-12 16:00:00 24.2 8 Norte 18 Nordeste 0 -- -- 62
2017-08-12 15:00:00 23.9 8 Noroeste 19 Noroeste 0 -- -- 67
2017-08-12 14:00:00 23.3 9 Noroeste 14 Oeste 0 -- -- 61
2017-08-12 13:00:00 22.4 4 Nordeste 12 Sur 0 -- -- 61
2017-08-12 12:00:00 21.2 4 Sur 9 Noroeste 0 -- -- 65
2017-08-12 11:00:00 18 3 Sur 9 Sudeste 0 -- -- 79
2017-08-12 10:00:00 14.6 2 Sudoeste 4 Sudoeste 0 -- -- 91
2017-08-12 09:00:00 12.2 0 Calma 5 Sudeste 0 -- -- 97
2017-08-12 08:00:00 12 2 Nordeste 4 Nordeste 0 -- -- 97
2017-08-12 07:00:00 12 0 Calma 4 Noroeste 0 -- -- 97
2017-08-12 06:00:00 12.1 0 Calma 3 Noroeste 0 -- -- 96
2017-08-12 05:00:00 12.3 0 Calma 3 Noroeste 0 -- -- 97
2017-08-12 04:00:00 12.3 0 Calma 2 Nordeste 0 -- -- 97
2017-08-12 03:00:00 11.7 0 Calma 2 Nordeste 0 -- -- 96
2017-08-12 02:00:00 12.1 0 Calma 3 Sudeste 0 -- -- 95
2017-08-12 01:00:00 12.4 0 Calma 3 Sudeste 0 -- -- 95
2017-08-12 00:00:00 12.7 0 Calma 3 Sudeste 0 -- -- 93
2017-08-11 23:00:00 13.5 0 Calma 5 Este 0 -- -- 90
2017-08-11 22:00:00 15.1 0 Calma 5 Sudeste 0 -- -- 86
2017-08-11 21:00:00 17.9 0 Calma 10 Noroeste 0 -- -- 76
2017-08-11 20:00:00 19.6 4 Norte 15 Norte 0 -- -- 65
2017-08-11 19:00:00 21.1 8 Norte 21 Noroeste 0 -- -- 61
2017-08-11 18:00:00 22.3 7 Noroeste 22 Noroeste 0 -- -- 58
2017-08-11 17:00:00 22.2 8 Noroeste 21 Oeste 0 -- -- 55
2017-08-11 16:00:00 22.2 8 Noroeste 24 Oeste 0 -- -- 54
2017-08-11 15:00:00 22 8 Noroeste 32 Noroeste 0 -- -- 57
2017-08-11 14:00:00 21.3 12 Noroeste 26 Noroeste 0 -- -- 62
2017-08-11 13:00:00 20.4 14 Noroeste 25 Noroeste 0 -- -- 63
2017-08-11 12:00:00 20.3 8 Noroeste 24 Noroeste 0 -- -- 62
2017-08-11 11:00:00 19.2 5 Oeste 14 Oeste 0 -- -- 72
2017-08-11 10:00:00 14.9 0 Calma 5 Norte 0 -- -- 90
2017-08-11 09:00:00 12.1 0 Calma 4 Oeste 0 -- -- 98
2017-08-11 08:00:00 11.6 0 Calma 5 Sudeste 0 -- -- 98
2017-08-11 07:00:00 11.2 0 Calma 2 Sur 0 -- -- 98
2017-08-11 06:00:00 11.2 0 Calma 3 Sur 0 -- -- 98
2017-08-11 05:00:00 10.8 0 Calma 4 Sudeste 0 -- -- 97
2017-08-11 04:00:00 11.4 0 Calma 3 Este 0 -- -- 96
2017-08-11 03:00:00 11.4 0 Calma 3 Sudeste 0 -- -- 96
2017-08-11 02:00:00 11.7 0 Calma 4 Sudeste 0 -- -- 95
2017-08-11 01:00:00 12.9 0 Calma 4 Este 0.2 -- -- 93
2017-08-11 00:00:00 14.2 0 Calma 6 Sudeste 0 -- -- 92
2017-08-10 23:00:00 15.3 0 Calma 9 Sudeste 0 -- -- 93
2017-08-10 22:00:00 15.8 0 Calma 5 Sudeste 0 -- -- 91
2017-08-10 21:00:00 16.9 3 Este 16 Oeste 0.2 -- -- 84
2017-08-10 20:00:00 18.3 4 Oeste 24 Oeste 0 -- -- 76
2017-08-10 19:00:00 18.5 5 Oeste 19 Noroeste 0 -- -- 77
2017-08-10 18:00:00 18.2 7 Oeste 28 Oeste 0.4 -- -- 81
2017-08-10 17:00:00 19.2 8 Oeste 24 Noroeste 0 -- -- 75
2017-08-10 16:00:00 19.1 5 Noroeste 21 Norte 0 -- -- 76
2017-08-10 15:00:00 19.3 8 Noroeste 21 Norte 0 -- -- 82
2017-08-10 14:00:00 18.1 4 Oeste 22 Nordeste 2.4 -- -- 92
2017-08-10 13:00:00 18.5 6 Norte 23 Norte 0 -- -- 86
2017-08-10 12:00:00 18 6 Oeste 23 Oeste 0 -- -- 93
2017-08-10 11:00:00 16 0 Calma 10 Oeste 2.8 -- -- 98
2017-08-10 10:00:00 15.5 5 Oeste 12 Oeste 1.4 -- -- 99
2017-08-10 09:00:00 14.5 0 Calma 8 Sur 3.8 -- -- 99
2017-08-10 08:00:00 14.2 6 Sudoeste 16 Oeste 1.2 -- -- 99
2017-08-10 07:00:00 13.8 0 Calma 6 Sudeste 2.6 -- -- 99
2017-08-10 06:00:00 13.7 0 Calma 5 Sudeste 0.8 -- -- 99
2017-08-10 05:00:00 13.9 0 Calma 6 Sudeste 5.6 -- -- 98
2017-08-10 04:00:00 14 0 Calma 8 Sudeste 1.4 -- -- 98
2017-08-10 03:00:00 14 0 Calma 5 Sur 2 -- -- 98
2017-08-10 02:00:00 14.1 3 Nordeste 6 Nordeste 0 -- -- 98
2017-08-10 01:00:00 14.3 0 Calma 4 Sudeste 0.2 -- -- 98
2017-08-10 00:00:00 14.4 0 Calma 6 Nordeste 2 -- -- 97
2017-08-09 23:00:00 14.4 3 Norte 15 Sudeste 2.8 -- -- 95
2017-08-09 22:00:00 14.2 0 Calma 5 Sur 0 -- -- 92
2017-08-09 21:00:00 16 0 Calma 11 Noroeste 0 -- -- 88
2017-08-09 20:00:00 16.7 0 Calma 20 Oeste 2.8 -- -- 88
2017-08-09 19:00:00 18.7 10 Noroeste 26 Oeste 0 -- -- 65
2017-08-09 18:00:00 18.3 5 Sudoeste 33 Oeste 0.4 -- -- 76
2017-08-09 17:00:00 19.9 5 Noroeste 27 Noroeste 0.6 -- -- 67
2017-08-09 16:00:00 20.9 12 Oeste 26 Oeste 0 -- -- 60
2017-08-09 15:00:00 19.3 7 Oeste 25 Noroeste 0 -- -- 73
2017-08-09 14:00:00 18.1 3 Este 8 Oeste 0 -- -- 77
2017-08-09 13:00:00 15.8 4 Oeste 31 Noroeste 0.6 -- -- 86
2017-08-09 12:00:00 16.9 2 Noroeste 19 Noroeste 0 -- -- 75
2017-08-09 11:00:00 16.3 3 Noroeste 15 Oeste 0 -- -- 85
2017-08-09 10:00:00 15.2 7 Oeste 15 Oeste 0.2 -- -- 91
2017-08-09 09:00:00 15 8 Oeste 27 Noroeste 0.2 -- -- 93
2017-08-09 08:00:00 14.8 0 Calma 3 Norte 0 -- -- 95
2017-08-09 07:00:00 14.9 0 Calma 4 Este 0 -- -- 95
2017-08-09 06:00:00 15 3 Nordeste 5 Nordeste 0.2 -- -- 95
2017-08-09 05:00:00 14.9 0 Calma 4 Norte 0 -- -- 95
2017-08-09 04:00:00 15.2 2 Sudoeste 8 Noroeste 0 -- -- 94
2017-08-09 03:00:00 15.5 2 Este 5 Sudeste 0 -- -- 94
2017-08-09 02:00:00 15.6 0 Calma 4 Noroeste 0 -- -- 93
2017-08-09 01:00:00 15.8 0 Calma 3 Noroeste 0 -- -- 93
2017-08-09 00:00:00 15.8 0 Calma 5 Nordeste 0 -- -- 93
2017-08-08 23:00:00 16 6 Nordeste 10 Nordeste 0 -- -- 92
2017-08-08 22:00:00 16.1 0 Calma 4 Sudeste 0 -- -- 90
2017-08-08 21:00:00 17.6 0 Calma 5 Sur 0 -- -- 84
2017-08-08 20:00:00 17.9 3 Nordeste 10 Nordeste 0 -- -- 78
2017-08-08 19:00:00 18.4 3 Este 13 Sudoeste 0 -- -- 72
2017-08-08 18:00:00 18.9 8 Oeste 26 Oeste 0 -- -- 69
2017-08-08 17:00:00 20.6 6 Oeste 25 Oeste 0 -- -- 65
2017-08-08 16:00:00 18.6 7 Oeste 22 Norte 0.6 -- -- 81
2017-08-08 15:00:00 18.7 10 Norte 22 Oeste 0.4 -- -- 83
2017-08-08 14:00:00 20.1 9 Noroeste 26 Noroeste 0 -- -- 76
2017-08-08 13:00:00 19.7 7 Noroeste 18 Oeste 0 -- -- 81
2017-08-08 12:00:00 18.2 2 Este 9 Sudoeste 0.6 -- -- 88
2017-08-08 11:00:00 17.2 0 Calma 5 Noroeste 0 -- -- 90
2017-08-08 10:00:00 16.3 0 Calma 6 Norte 1 -- -- 94
2017-08-08 09:00:00 15.9 3 Noroeste 6 Noroeste 0.2 -- -- 95
2017-08-08 08:00:00 15.7 0 Calma 5 Este 0 -- -- 95
2017-08-08 07:00:00 15.8 3 Este 13 Sudoeste 2 -- -- 94
2017-08-08 06:00:00 16.4 2 Sudoeste 7 Sudeste 0.4 -- -- 95
2017-08-08 05:00:00 16.5 2 Sudeste 28 Oeste 1.2 -- -- 93
2017-08-08 04:00:00 17.3 5 Sudoeste 22 Sudoeste 0.8 -- -- 92
2017-08-08 03:00:00 17.2 5 Oeste 15 Oeste 3.4 -- -- 95
2017-08-08 02:00:00 17.9 4 Oeste 29 Oeste 1.4 -- -- 88
2017-08-08 01:00:00 19.6 13 Oeste 26 Oeste 0 -- -- 81
2017-08-08 00:00:00 19.6 6 Oeste 19 Oeste 0 -- -- 86
2017-08-07 23:00:00 19.5 2 Sur 12 Sudoeste 0 -- -- 90
2017-08-07 22:00:00 20.5 7 Oeste 19 Oeste 0 -- -- 83
2017-08-07 21:00:00 20.9 2 Oeste 15 Sudoeste 0 -- -- 79
2017-08-07 20:00:00 21.2 6 Oeste 22 Oeste 0 -- -- 79
2017-08-07 19:00:00 22 5 Noroeste 14 Nordeste 0 -- -- 76
2017-08-07 18:00:00 22.6 4 Norte 16 Norte 0 -- -- 77
2017-08-07 17:00:00 23.2 7 Noroeste 19 Noroeste 0 -- -- 75
2017-08-07 16:00:00 24.4 8 Norte 21 Noroeste 0 -- -- 69
2017-08-07 15:00:00 25.8 10 Noroeste 21 Noroeste 0 -- -- 65
2017-08-07 14:00:00 25.7 6 Norte 13 Noroeste 0 -- -- 67
2017-08-07 13:00:00 24.8 4 Oeste 12 Oeste 0 -- -- 65
2017-08-07 12:00:00 21.3 3 Noroeste 5 Oeste 0 -- -- 74
2017-08-07 11:00:00 19.8 0 Calma 5 Sudoeste 0 -- -- 83
2017-08-07 10:00:00 18.6 0 Calma 4 Norte 0 -- -- 83
2017-08-07 09:00:00 16.9 0 Calma 2 Sur 0 -- -- 91
2017-08-07 08:00:00 15.9 0 Calma 2 Sudoeste 0 -- -- 94
2017-08-07 07:00:00 15.6 0 Calma 2 Sudeste 0 -- -- 95
2017-08-07 06:00:00 15.4 0 Calma 2 Este 0 -- -- 94
2017-08-07 05:00:00 15.1 0 Calma 3 Este 0 -- -- 96
2017-08-07 04:00:00 14.6 0 Calma 2 Sur 0 -- -- 96
2017-08-07 03:00:00 14.2 0 Calma 2 Sur 0 -- -- 96
2017-08-07 02:00:00 14.3 0 Calma 3 Sudeste 0 -- -- 94
2017-08-07 01:00:00 14.7 2 Sudeste 4 Sudeste 0 -- -- 93
2017-08-07 00:00:00 15.3 0 Calma 4 Sudeste 0 -- -- 92
2017-08-06 23:00:00 16.1 3 Sudeste 4 Sudeste 0 -- -- 89
2017-08-06 22:00:00 17.5 3 Sudeste 8 Noroeste 0 -- -- 83
2017-08-06 21:00:00 20.5 4 Norte 15 Noroeste 0 -- -- 70
2017-08-06 20:00:00 21.4 8 Norte 16 Norte 0 -- -- 67
2017-08-06 19:00:00 21.9 7 Norte 15 Noroeste 0 -- -- 68
2017-08-06 18:00:00 22 5 Norte 15 Nordeste 0 -- -- 66
2017-08-06 17:00:00 22.4 6 Norte 16 Noroeste 0 -- -- 66
2017-08-06 16:00:00 22.6 8 Norte 17 Noroeste 0 -- -- 64
2017-08-06 15:00:00 22.8 8 Noroeste 19 Noroeste 0 -- -- 62
2017-08-06 14:00:00 22.8 3 Noroeste 12 Noroeste 0 -- -- 62
2017-08-06 13:00:00 22.1 3 Sur 9 Este 0 -- -- 62
2017-08-06 12:00:00 20.7 3 Este 6 Sudeste 0 -- -- 65
2017-08-06 11:00:00 18.2 0 Calma 3 Nordeste 0 -- -- 84
2017-08-06 10:00:00 17.4 0 Calma 4 Noroeste 0 -- -- 88
2017-08-06 09:00:00 17 2 Norte 4 Noroeste 0 -- -- 90
2017-08-06 08:00:00 16.4 0 Calma 3 Noroeste 0 -- -- 93
2017-08-06 07:00:00 16.3 0 Calma 4 Nordeste 0 -- -- 93
2017-08-06 06:00:00 16.6 0 Calma 3 Noroeste 0 -- -- 93
2017-08-06 05:00:00 16.8 0 Calma 4 Noroeste 0 -- -- 93
2017-08-06 04:00:00 17 0 Calma 2 Noroeste 0 -- -- 94
2017-08-06 03:00:00 17.1 0 Calma 5 Noroeste 0 -- -- 93
2017-08-06 02:00:00 17.4 2 Noroeste 7 Noroeste 0 -- -- 93
2017-08-06 01:00:00 17.7 0 Calma 4 Oeste 0 -- -- 93
2017-08-06 00:00:00 18 0 Calma 4 Oeste 0 -- -- 94
2017-08-05 23:00:00 18.1 0 Calma 6 Este 0.2 -- -- 93
2017-08-05 22:00:00 18.4 0 Calma 5 Sur 0 -- -- 90
2017-08-05 21:00:00 18.9 0 Calma 5 Sur 0 -- -- 90
2017-08-05 20:00:00 19.9 3 Nordeste 6 Nordeste 0.2 -- -- 82
2017-08-05 19:00:00 19.8 3 Sudoeste 5 Sudoeste 0 -- -- 84
2017-08-05 18:00:00 20.2 4 Norte 10 Noroeste 0 -- -- 82
2017-08-05 17:00:00 20.6 4 Nordeste 12 Noroeste 0 -- -- 77
2017-08-05 16:00:00 20.4 3 Noroeste 14 Noroeste 0 -- -- 80
2017-08-05 15:00:00 19.5 6 Noroeste 17 Noroeste 0.2 -- -- 88
2017-08-05 14:00:00 19.7 5 Noroeste 18 Noroeste 0.2 -- -- 91
2017-08-05 13:00:00 20.1 8 Noroeste 22 Norte 0.2 -- -- 89
2017-08-05 12:00:00 20.9 5 Noroeste 22 Noroeste 0 -- -- 90
2017-08-05 11:00:00 21.1 4 Oeste 10 Norte 0 -- -- 92
2017-08-05 10:00:00 20.8 6 Noroeste 14 Noroeste 0 -- -- 91
2017-08-05 09:00:00 20.6 5 Norte 14 Noroeste 0.2 -- -- 93
2017-08-05 08:00:00 20.3 0 Calma 4 Sudeste 0 -- -- 94
2017-08-05 07:00:00 20.3 0 Calma 3 Nordeste 0 -- -- 93
2017-08-05 06:00:00 20.2 0 Calma 3 Sudeste 0 -- -- 92
2017-08-05 05:00:00 19.9 0 Calma 3 Este 0 -- -- 93
2017-08-05 04:00:00 19.6 0 Calma 2 Este 0 -- -- 93
2017-08-05 03:00:00 18.9 2 Este 4 Este 0 -- -- 94
2017-08-05 02:00:00 18.8 0 Calma 4 Sudeste 0 -- -- 93
2017-08-05 01:00:00 19.3 0 Calma 4 Sudeste 0 -- -- 91
2017-08-05 00:00:00 20.1 0 Calma 4 Sur 0 -- -- 89
2017-08-04 23:00:00 21.5 0 Calma 5 Sur 0 -- -- 85
2017-08-04 22:00:00 23.6 0 Calma 12 Noroeste 0 -- -- 76
2017-08-04 21:00:00 26 4 Noroeste 17 Noroeste 0 -- -- 67
2017-08-04 20:00:00 27.6 10 Noroeste 21 Noroeste 0 -- -- 62
2017-08-04 19:00:00 28.9 7 Norte 17 Noroeste 0 -- -- 57
2017-08-04 18:00:00 29.4 8 Norte 20 Noroeste 0 -- -- 54
2017-08-04 17:00:00 29.9 8 Norte 20 Nordeste 0 -- -- 54
2017-08-04 16:00:00 30.4 6 Norte 17 Este 0 -- -- 52
2017-08-04 15:00:00 29.9 6 Norte 17 Nordeste 0 -- -- 54
2017-08-04 14:00:00 30 5 Oeste 14 Noroeste 0 -- -- 54
2017-08-04 13:00:00 29.2 5 Noroeste 12 Noroeste 0 -- -- 56
2017-08-04 12:00:00 27.3 4 Sur 6 Oeste 0 -- -- 65
2017-08-04 11:00:00 24.7 4 Noroeste 9 Oeste 0 -- -- 76
2017-08-04 10:00:00 21.3 0 Calma 5 Nordeste 0 -- -- 88
2017-08-04 09:00:00 19.6 0 Calma 5 Nordeste 0 -- -- 93
2017-08-04 08:00:00 19 2 Nordeste 4 Este 0 -- -- 96
2017-08-04 07:00:00 18.9 0 Calma 4 Este 0 -- -- 96
2017-08-04 06:00:00 18.3 0 Calma 3 Sudeste 0 -- -- 95
2017-08-04 05:00:00 18.5 0 Calma 4 Este 0 -- -- 94
2017-08-04 04:00:00 19.3 3 Sudeste 5 Sudeste 0 -- -- 93
2017-08-04 03:00:00 20.4 2 Sudeste 4 Sur 0 -- -- 91
2017-08-04 02:00:00 21.2 0 Calma 6 Sudeste 0 -- -- 90
2017-08-04 01:00:00 21.5 0 Calma 4 Sudeste 0 -- -- 89
2017-08-04 00:00:00 22.1 0 Calma 7 Noroeste 0 -- -- 85
2017-08-03 23:00:00 22.4 3 Norte 6 Nordeste 0 -- -- 83
2017-08-03 22:00:00 22.6 3 Norte 12 Nordeste 0 -- -- 82
2017-08-03 21:00:00 23 4 Norte 15 Noroeste 0 -- -- 80
2017-08-03 20:00:00 24.1 10 Noroeste 22 Noroeste 0 -- -- 75
2017-08-03 19:00:00 26.3 10 Norte 22 Norte 0 -- -- 68
2017-08-03 18:00:00 27.5 8 Norte 23 Norte 0 -- -- 63
2017-08-03 17:00:00 28 8 Norte 21 Norte 0 -- -- 64
2017-08-03 16:00:00 27.8 10 Norte 23 Noroeste 0 -- -- 64
2017-08-03 15:00:00 27.6 9 Norte 23 Noroeste 0 -- -- 64
2017-08-03 14:00:00 28.9 8 Noroeste 16 Noroeste 0 -- -- 63
2017-08-03 13:00:00 27.4 7 Noroeste 11 Noroeste 0 -- -- 68
2017-08-03 12:00:00 26.8 5 Norte 10 Noroeste 0 -- -- 65
2017-08-03 11:00:00 25.1 4 Sudoeste 8 Oeste 0 -- -- 68
2017-08-03 10:00:00 23.7 3 Nordeste 6 Nordeste 0 -- -- 74
2017-08-03 09:00:00 21.6 2 Este 4 Este 0 -- -- 82
2017-08-03 08:00:00 19.6 0 Calma 6 Noroeste 0 -- -- 91
2017-08-03 07:00:00 19.6 0 Calma 5 Noroeste 0 -- -- 91
2017-08-03 06:00:00 19.6 0 Calma 4 Noroeste 0 -- -- 91
2017-08-03 05:00:00 19.6 0 Calma 3 Sur 0 -- -- 91
2017-08-03 04:00:00 19.7 0 Calma 4 Norte 0 -- -- 90
2017-08-03 03:00:00 19.6 2 Nordeste 4 Sudeste 0 -- -- 89
2017-08-03 02:00:00 19.1 0 Calma 4 Noroeste 0 -- -- 90
2017-08-03 01:00:00 19 0 Calma 4 Sudeste 0 -- -- 89
2017-08-03 00:00:00 19.9 2 Sudeste 4 Sudeste 0 -- -- 85
2017-08-02 23:00:00 20.8 3 Sudeste 9 Nordeste 0 -- -- 82
2017-08-02 22:00:00 22 2 Nordeste 15 Nordeste 0 -- -- 75
2017-08-02 21:00:00 22.4 4 Nordeste 18 Norte 0 -- -- 74
2017-08-02 20:00:00 23.1 5 Noroeste 21 Norte 0 -- -- 72
2017-08-02 19:00:00 24.5 10 Norte 21 Noroeste 0 -- -- 66
2017-08-02 18:00:00 25.9 10 Norte 24 Noroeste 0 -- -- 66
2017-08-02 17:00:00 27.1 6 Noroeste 17 Noroeste 0 -- -- 68
2017-08-02 16:00:00 27 5 Nordeste 15 Nordeste 0 -- -- 68
2017-08-02 15:00:00 26.6 6 Norte 17 Norte 0 -- -- 67
2017-08-02 14:00:00 25.5 8 Norte 22 Norte 0 -- -- 70
2017-08-02 13:00:00 25.7 7 Norte 16 Nordeste 0 -- -- 69
2017-08-02 12:00:00 25 5 Norte 10 Norte 0 -- -- 67
2017-08-02 11:00:00 23 2 Nordeste 4 Nordeste 0 -- -- 73
2017-08-02 10:00:00 19.7 0 Calma 4 Este 0 -- -- 83
2017-08-02 09:00:00 17.2 0 Calma 2 Sur 0 -- -- 96
2017-08-02 08:00:00 16.6 0 Calma 3 Nordeste 0 -- -- 96
2017-08-02 07:00:00 16 0 Calma 3 Sudeste 0 -- -- 96
2017-08-02 06:00:00 15.9 0 Calma 4 Sudeste 0 -- -- 94
2017-08-02 05:00:00 16.9 2 Sudeste 4 Este 0 -- -- 92
2017-08-02 04:00:00 18.3 0 Calma 4 Sudeste 0 -- -- 92
2017-08-02 03:00:00 18.8 0 Calma 2 Sudeste 0 -- -- 91
2017-08-02 02:00:00 18.9 0 Calma 3 Sur 0 -- -- 90
2017-08-02 01:00:00 19 0 Calma 3 Sudeste 0 -- -- 90
2017-08-02 00:00:00 19.2 0 Calma 3 Sudeste 0 -- -- 89
2017-08-01 23:00:00 19.5 0 Calma 3 Noroeste 0 -- -- 87
2017-08-01 22:00:00 20.1 0 Calma 5 Oeste 0 -- -- 83
2017-08-01 21:00:00 20.8 3 Noroeste 8 Norte 0 -- -- 78
2017-08-01 20:00:00 21.4 5 Norte 13 Noroeste 0 -- -- 76
2017-08-01 19:00:00 22 5 Norte 15 Norte 0 -- -- 74
2017-08-01 18:00:00 22.8 5 Norte 17 Norte 0 -- -- 69
2017-08-01 17:00:00 23 5 Norte 13 Norte 0 -- -- 70
2017-08-01 16:00:00 22.6 5 Noroeste 13 Noroeste 0 -- -- 68
2017-08-01 15:00:00 22.5 5 Noroeste 12 Norte 0 -- -- 68
2017-08-01 14:00:00 22.5 4 Nordeste 9 Norte 0 -- -- 67
2017-08-01 13:00:00 22.3 2 Norte 6 Oeste 0 -- -- 72
2017-08-01 12:00:00 21.5 0 Calma 0 Calma 0 -- -- 77
2017-08-01 11:00:00 20.6 0 Calma 0 Calma 0 -- -- 78
2017-08-01 10:00:00 19.8 0 Calma 0 Calma 0 -- -- 87
2017-08-01 09:00:00 19 0 Calma 0 Calma 0 -- -- 92
2017-08-01 08:00:00 18.5 0 Calma 0 Calma 0 -- -- 94
2017-08-01 07:00:00 18.5 0 Calma 0 Calma 0 -- -- 94
2017-08-01 06:00:00 18.6 0 Calma 4 Este 0 -- -- 93
2017-08-01 05:00:00 18.7 3 Sudeste 6 Este 0 -- -- 93
2017-08-01 04:00:00 18.8 0 Calma 3 Sudeste 0 -- -- 92
2017-08-01 03:00:00 18.8 0 Calma 2 Sudeste 0 -- -- 91
2017-08-01 02:00:00 18.9 0 Calma 6 Sudeste 0 -- -- 90
2017-08-01 01:00:00 18.9 0 Calma 5 Nordeste 0 -- -- 90
2017-08-01 00:00:00 19.4 2 Este 6 Norte 0 -- -- 88
2017-07-31 23:00:00 19.6 0 Calma 3 Nordeste 0 -- -- 87
2017-07-31 22:00:00 19.8 0 Calma 4 Sur 0 -- -- 85
2017-07-31 21:00:00 20.7 4 Sur 9 Noroeste 0 -- -- 80
2017-07-31 20:00:00 21.4 3 Noroeste 10 Noroeste 0 -- -- 72
2017-07-31 19:00:00 21.7 5 Noroeste 18 Noroeste 0 -- -- 72
2017-07-31 18:00:00 22.5 6 Norte 16 Norte 0 -- -- 72
2017-07-31 17:00:00 22.7 6 Noroeste 16 Norte 0 -- -- 74
2017-07-31 16:00:00 23.2 6 Noroeste 17 Noroeste 0 -- -- 73
2017-07-31 15:00:00 23.6 5 Norte 12 Norte 0 -- -- 71
2017-07-31 14:00:00 23.7 6 Noroeste 14 Noroeste 0 -- -- 68
2017-07-31 13:00:00 23 5 Noroeste 10 Noroeste 0 -- -- 70
2017-07-31 12:00:00 22.6 3 Sudeste 10 Sudeste 0 -- -- 72
2017-07-31 11:00:00 21.9 4 Este 13 Este 0 -- -- 73
2017-07-31 10:00:00 20.6 3 Oeste 5 Sudoeste 0 -- -- 84
2017-07-31 09:00:00 18.6 0 Calma 4 Sudoeste 0 -- -- 91
2017-07-31 08:00:00 18 0 Calma 3 Sur 0 -- -- 95
2017-07-31 07:00:00 17.8 0 Calma 4 Nordeste 0 -- -- 94
2017-07-31 06:00:00 17.8 0 Calma 4 Este 0 -- -- 95
2017-07-31 05:00:00 17.9 0 Calma 3 Sudeste 0 -- -- 94
2017-07-31 04:00:00 18.1 0 Calma 4 Sudeste 0 -- -- 94
2017-07-31 03:00:00 18.1 0 Calma 5 Oeste 0 -- -- 94
2017-07-31 02:00:00 18.2 0 Calma 6 Nordeste 0 -- -- 94
2017-07-31 01:00:00 18.2 0 Calma 4 Noroeste 0 -- -- 93
2017-07-31 00:00:00 18.5 0 Calma 5 Noroeste 0 -- -- 92
2017-07-30 23:00:00 18.6 0 Calma 8 Sudoeste 0 -- -- 90
2017-07-30 22:00:00 18.9 5 Sudoeste 8 Oeste 0 -- -- 88
2017-07-30 21:00:00 19.8 3 Oeste 8 Oeste 0 -- -- 84
2017-07-30 20:00:00 21 4 Noroeste 12 Noroeste 0 -- -- 79
2017-07-30 19:00:00 21.3 4 Oeste 11 Oeste 0 -- -- 78
2017-07-30 18:00:00 21.8 9 Noroeste 21 Noroeste 0 -- -- 82
2017-07-30 17:00:00 22.3 8 Oeste 22 Nordeste 0 -- -- 78
2017-07-30 16:00:00 23.1 7 Norte 23 Noroeste 0 -- -- 75
2017-07-30 15:00:00 23.9 8 Norte 20 Norte 0 -- -- 74
2017-07-30 14:00:00 24.5 10 Norte 23 Norte 0 -- -- 73
2017-07-30 13:00:00 24.8 6 Norte 19 Noroeste 0 -- -- 74
2017-07-30 12:00:00 24 7 Noroeste 14 Norte 0 -- -- 75
2017-07-30 11:00:00 24.1 6 Norte 12 Norte 0 -- -- 77
2017-07-30 10:00:00 22.8 0 Calma 0 Calma 0 -- -- 81
2017-07-30 09:00:00 20.1 0 Calma 0 Calma 0 -- -- 91
2017-07-30 08:00:00 18.6 0 Calma 0 Calma 0 -- -- 96
2017-07-30 07:00:00 17.9 0 Calma 0 Calma 0 -- -- 95
2017-07-30 06:00:00 18.1 0 Calma 4 Sudeste 0 -- -- 95
2017-07-30 05:00:00 18.2 2 Sudeste 6 Este 0 -- -- 95
2017-07-30 04:00:00 18.5 2 Sudeste 5 Sur 0 -- -- 93
2017-07-30 03:00:00 19.6 0 Calma 5 Sudeste 0 -- -- 91
2017-07-30 02:00:00 21.4 0 Calma 6 Este 0 -- -- 88
2017-07-30 01:00:00 21.4 2 Norte 6 Este 0 -- -- 88
2017-07-30 00:00:00 21.1 0 Calma 4 Sur 0 -- -- 89
2017-07-29 23:00:00 21 2 Nordeste 6 Este 0 -- -- 88
2017-07-29 22:00:00 21.9 3 Sudeste 6 Sur 0 -- -- 85
2017-07-29 21:00:00 24.7 3 Sudeste 6 Sudeste 0 -- -- 78
2017-07-29 20:00:00 26 3 Este 8 Este 0 -- -- 71
2017-07-29 19:00:00 26.9 4 Nordeste 13 Norte 0 -- -- 66
2017-07-29 18:00:00 27.9 7 Noroeste 18 Noroeste 0 -- -- 61
2017-07-29 17:00:00 28.4 10 Norte 19 Nordeste 0 -- -- 60
2017-07-29 16:00:00 28.1 8 Nordeste 17 Norte 0 -- -- 63
2017-07-29 15:00:00 28.5 8 Norte 16 Norte 0 -- -- 66
2017-07-29 14:00:00 27.7 5 Sur 13 Nordeste 0 -- -- 69
2017-07-29 13:00:00 26.6 3 Sur 13 Norte 0 -- -- 68
2017-07-29 12:00:00 25.5 6 Norte 13 Noroeste 0 -- -- 70
2017-07-29 11:00:00 23.7 3 Oeste 5 Noroeste 0 -- -- 76
2017-07-29 10:00:00 20.7 0 Calma 5 Nordeste 0 -- -- 87
2017-07-29 09:00:00 18.4 2 Este 15 Oeste 0 -- -- 96
2017-07-29 08:00:00 17.7 0 Calma 3 Nordeste 0 -- -- 97
2017-07-29 07:00:00 17.6 0 Calma 4 Noroeste 0.2 -- -- 96
2017-07-29 06:00:00 17.1 0 Calma 0 Calma 0 -- -- 96
2017-07-29 05:00:00 17.1 0 Calma 2 Este 0 -- -- 96
2017-07-29 04:00:00 17.3 0 Calma 6 Sudeste 0 -- -- 94
2017-07-29 03:00:00 17.9 2 Sudeste 4 Sudeste 0 -- -- 93
2017-07-29 02:00:00 18.7 2 Sudeste 4 Sudeste 0 -- -- 91
2017-07-29 01:00:00 19.7 3 Sur 4 Sur 0 -- -- 89
2017-07-29 00:00:00 20.3 2 Sur 5 Nordeste 0 -- -- 88
2017-07-28 23:00:00 20.7 0 Calma 12 Oeste 0 -- -- 84
2017-07-28 22:00:00 21 4 Noroeste 12 Noroeste 0 -- -- 83
2017-07-28 21:00:00 22.4 4 Norte 13 Noroeste 0 -- -- 78
2017-07-28 20:00:00 23.9 7 Noroeste 15 Noroeste 0 -- -- 73
2017-07-28 19:00:00 24.9 6 Nordeste 17 Este 0 -- -- 70
2017-07-28 18:00:00 25.6 5 Nordeste 15 Sudeste 0 -- -- 69
2017-07-28 17:00:00 24.4 7 Norte 17 Nordeste 0 -- -- 71
2017-07-28 16:00:00 24.4 10 Noroeste 18 Noroeste 0 -- -- 70
2017-07-28 15:00:00 23.1 8 Norte 18 Noroeste 0 -- -- 73
2017-07-28 14:00:00 23.1 6 Norte 14 Norte 0 -- -- 76
2017-07-28 13:00:00 22.1 4 Nordeste 13 Nordeste 0 -- -- 79
2017-07-28 12:00:00 21.3 3 Sur 10 Norte 0 -- -- 83
2017-07-28 11:00:00 20.6 5 Noroeste 10 Norte 0 -- -- 88
2017-07-28 10:00:00 20.2 3 Noroeste 6 Noroeste 0 -- -- 91
2017-07-28 09:00:00 19.9 3 Noroeste 9 Noroeste 0 -- -- 94
2017-07-28 08:00:00 19.9 2 Sudoeste 8 Noroeste 0.2 -- -- 93
2017-07-28 07:00:00 20 3 Norte 6 Nordeste 0 -- -- 90
2017-07-28 06:00:00 19.9 0 Calma 5 Sur 0 -- -- 93
2017-07-28 05:00:00 20.2 2 Sudoeste 6 Nordeste 0 -- -- 90
2017-07-28 04:00:00 20.3 2 Norte 5 Nordeste 0 -- -- 90
2017-07-28 03:00:00 20.5 0 Calma 3 Sur 0 -- -- 92
2017-07-28 02:00:00 20.7 0 Calma 4 Este 0 -- -- 90
2017-07-28 01:00:00 20.7 0 Calma 3 Sur 0 -- -- 89
2017-07-28 00:00:00 21 0 Calma 6 Este 0 -- -- 87
2017-07-27 23:00:00 21.2 0 Calma 6 Norte 0 -- -- 86
2017-07-27 22:00:00 21.4 2 Noroeste 10 Norte 0 -- -- 83
2017-07-27 21:00:00 23 4 Noroeste 10 Nordeste 0 -- -- 76
2017-07-27 20:00:00 24.4 4 Norte 19 Nordeste 0 -- -- 69
2017-07-27 19:00:00 26.1 7 Norte 16 Norte 0 -- -- 62
2017-07-27 18:00:00 26.8 7 Nordeste 17 Noroeste 0 -- -- 59
2017-07-27 17:00:00 27.7 4 Norte 18 Norte 0 -- -- 55
2017-07-27 16:00:00 27.6 8 Norte 19 Noroeste 0 -- -- 54
2017-07-27 15:00:00 28.7 11 Noroeste 22 Noroeste 0 -- -- 53
2017-07-27 14:00:00 27.2 6 Nordeste 18 Norte 0 -- -- 59
2017-07-27 13:00:00 27.2 4 Norte 10 Norte 0 -- -- 52
2017-07-27 12:00:00 24.7 2 Norte 5 Nordeste 0 -- -- 66
2017-07-27 11:00:00 22 3 Norte 7 Oeste 0 -- -- 74
2017-07-27 10:00:00 19.5 0 Calma 4 Nordeste 0 -- -- 79
2017-07-27 09:00:00 16.9 0 Calma 6 Sudoeste 0 -- -- 92
2017-07-27 08:00:00 16.4 2 Oeste 5 Oeste 0 -- -- 94
2017-07-27 07:00:00 16.3 0 Calma 5 Noroeste 0 -- -- 95
2017-07-27 06:00:00 16.2 0 Calma 4 Noroeste 0 -- -- 96
2017-07-27 05:00:00 16.1 0 Calma 4 Sudoeste 0 -- -- 97
2017-07-27 04:00:00 16 0 Calma 4 Nordeste 0 -- -- 97
2017-07-27 03:00:00 15.8 0 Calma 3 Norte 0 -- -- 96
2017-07-27 02:00:00 15.3 0 Calma 2 Sudeste 0 -- -- 96
2017-07-27 01:00:00 14.9 2 Sudeste 4 Sudeste 0 -- -- 94
2017-07-27 00:00:00 15.9 0 Calma 4 Este 0 -- -- 93
2017-07-26 23:00:00 17 0 Calma 4 Sudeste 0 -- -- 90
2017-07-26 22:00:00 18.9 0 Calma 6 Noroeste 0 -- -- 85
2017-07-26 21:00:00 20.9 5 Noroeste 19 Noroeste 0 -- -- 78
2017-07-26 20:00:00 22.4 10 Noroeste 21 Noroeste 0 -- -- 71
2017-07-26 19:00:00 24.1 9 Noroeste 20 Noroeste 0 -- -- 66
2017-07-26 18:00:00 25.8 5 Noroeste 17 Nordeste 0 -- -- 62
2017-07-26 17:00:00 25.1 9 Norte 19 Noroeste 0 -- -- 64
2017-07-26 16:00:00 25.8 8 Norte 15 Noroeste 0 -- -- 63
2017-07-26 15:00:00 24.6 3 Nordeste 12 Nordeste 0 -- -- 66
2017-07-26 14:00:00 24.7 5 Noroeste 11 Sudeste 0 -- -- 60
2017-07-26 13:00:00 24.1 3 Noroeste 9 Oeste 0 -- -- 59
2017-07-26 12:00:00 21.6 4 Norte 9 Este 0 -- -- 67
2017-07-26 11:00:00 20 0 Calma 0 Calma 0 -- -- 78
2017-07-26 10:00:00 17.7 0 Calma 0 Calma 0 -- -- 88
2017-07-26 09:00:00 16.1 0 Calma 0 Calma 0 -- -- 96
2017-07-26 08:00:00 15.4 0 Calma 0 Calma 0 -- -- 96
2017-07-26 07:00:00 15.4 0 Calma 0 Calma 0 -- -- 96
2017-07-26 06:00:00 15.5 0 Calma 0 Calma 0 -- -- 95
2017-07-26 05:00:00 15.6 0 Calma 0 Calma 0 -- -- 96
2017-07-26 04:00:00 15.5 0 Calma 3 Este 0 -- -- 95
2017-07-26 03:00:00 15.4 0 Calma 4 Este 0 -- -- 95
2017-07-26 02:00:00 15.5 0 Calma 4 Sudeste 0 -- -- 94
2017-07-26 01:00:00 16.8 0 Calma 2 Este 0 -- -- 93
2017-07-26 00:00:00 17.2 0 Calma 2 Sudoeste 0 -- -- 92
2017-07-25 23:00:00 17.6 0 Calma 5 Sur 0 -- -- 90
2017-07-25 22:00:00 18.1 3 Sur 17 Oeste 0 -- -- 86
2017-07-25 21:00:00 18.9 2 Oeste 10 Noroeste 0 -- -- 80
2017-07-25 20:00:00 19.5 0 Calma 13 Noroeste 0 -- -- 79
2017-07-25 19:00:00 20 4 Noroeste 17 Noroeste 0 -- -- 73
2017-07-25 18:00:00 20.2 5 Norte 19 Oeste 0 -- -- 72
2017-07-25 17:00:00 20.5 5 Noroeste 18 Noroeste 0 -- -- 72
2017-07-25 16:00:00 20.4 6 Noroeste 23 Noroeste 0 -- -- 73
2017-07-25 15:00:00 20.1 9 Noroeste 18 Noroeste 0 -- -- 72
2017-07-25 14:00:00 19.7 7 Noroeste 15 Oeste 0 -- -- 77
2017-07-25 13:00:00 20.7 8 Oeste 18 Oeste 0 -- -- 76
2017-07-25 12:00:00 18.7 0 Calma 0 Calma 0 -- -- 90
2017-07-25 11:00:00 18.2 0 Calma 0 Calma 0 -- -- 91
2017-07-25 10:00:00 16.9 0 Calma 0 Calma 0.2 -- -- 97
2017-07-25 09:00:00 16.3 0 Calma 0 Calma 0.2 -- -- 97
2017-07-25 08:00:00 16.1 0 Calma 0 Calma 0 -- -- 97
2017-07-25 07:00:00 16 0 Calma 0 Calma 0.2 -- -- 97
2017-07-25 06:00:00 15.9 0 Calma 0 Calma 0.4 -- -- 97
2017-07-25 05:00:00 15.7 0 Calma 3 Este 0 -- -- 97
2017-07-25 04:00:00 15.6 0 Calma 3 Sudoeste 0.2 -- -- 96
2017-07-25 03:00:00 16.1 0 Calma 3 Sur 0 -- -- 95
2017-07-25 02:00:00 16.7 0 Calma 5 Sur 0 -- -- 96
2017-07-25 01:00:00 16.8 2 Sudeste 4 Sur 0.2 -- -- 96
2017-07-25 00:00:00 16.9 0 Calma 5 Sudeste 0.4 -- -- 95
2017-07-24 23:00:00 17.3 0 Calma 5 Sudeste 1 -- -- 95
2017-07-24 22:00:00 17.4 3 Sudoeste 14 Oeste 0.4 -- -- 93
2017-07-24 21:00:00 18 3 Noroeste 13 Noroeste 0.8 -- -- 90
2017-07-24 20:00:00 18.3 0 Calma 7 Noroeste 0.8 -- -- 93
2017-07-24 19:00:00 18.7 3 Oeste 13 Noroeste 0.2 -- -- 91
2017-07-24 18:00:00 18.7 3 Sudoeste 21 Oeste 3.6 -- -- 92
2017-07-24 17:00:00 20.2 7 Oeste 21 Oeste 0 -- -- 85
2017-07-24 16:00:00 19.7 6 Noroeste 28 Noroeste 1.2 -- -- 87
2017-07-24 15:00:00 20.6 11 Oeste 30 Oeste 1.4 -- -- 87
2017-07-24 14:00:00 20.1 9 Oeste 28 Oeste 2.6 -- -- 90
2017-07-24 13:00:00 20.3 9 Oeste 22 Oeste 0.6 -- -- 85
2017-07-24 12:00:00 19.6 7 Oeste 23 Noroeste 1.4 -- -- 91
2017-07-24 11:00:00 19.5 7 Oeste 17 Oeste 0.8 -- -- 88
2017-07-24 10:00:00 19.1 2 Noroeste 13 Sudoeste 2 -- -- 92
2017-07-24 09:00:00 18.8 8 Oeste 17 Sudoeste 0 -- -- 88
2017-07-24 08:00:00 18.3 6 Sudoeste 25 Noroeste 0.6 -- -- 91
2017-07-24 07:00:00 18.5 6 Sudoeste 18 Oeste 1.8 -- -- 93
2017-07-24 06:00:00 18.4 0 Calma 6 Nordeste 1.2 -- -- 94
2017-07-24 05:00:00 18.6 3 Sudoeste 16 Oeste 0.6 -- -- 92
2017-07-24 04:00:00 18.4 5 Oeste 14 Oeste 0.2 -- -- 94
2017-07-24 03:00:00 17.9 0 Calma 4 Sudeste 0.2 -- -- 92
2017-07-24 02:00:00 17.9 0 Calma 2 Oeste 0 -- -- 90
2017-07-24 01:00:00 17.7 2 Sur 5 Sur 0 -- -- 89
2017-07-24 00:00:00 17.4 0 Calma 3 Sur 0 -- -- 90
2017-07-23 23:00:00 17.2 0 Calma 4 Sudeste 0 -- -- 90
2017-07-23 22:00:00 18 0 Calma 5 Sudeste 0 -- -- 85
2017-07-23 21:00:00 20.2 0 Calma 12 Norte 0 -- -- 76
2017-07-23 20:00:00 21.5 4 Norte 12 Noroeste 0 -- -- 70
2017-07-23 19:00:00 21.8 6 Noroeste 20 Noroeste 0 -- -- 68
2017-07-23 18:00:00 22.1 6 Noroeste 20 Noroeste 0 -- -- 69
2017-07-23 17:00:00 23 8 Norte 18 Noroeste 0 -- -- 64
2017-07-23 16:00:00 22.2 4 Este 22 Noroeste 0 -- -- 64
2017-07-23 15:00:00 23.3 6 Noroeste 15 Noroeste 0 -- -- 63
2017-07-23 14:00:00 22.9 5 Noroeste 14 Oeste 0 -- -- 68
2017-07-23 13:00:00 22.4 4 Norte 14 Este 0 -- -- 62
2017-07-23 12:00:00 21.9 4 Norte 13 Norte 0 -- -- 64
2017-07-23 11:00:00 21.2 2 Sudeste 5 Sudeste 0 -- -- 71
2017-07-23 10:00:00 19.2 0 Calma 4 Este 0 -- -- 85
2017-07-23 09:00:00 17.7 0 Calma 3 Noroeste 0 -- -- 92
2017-07-23 08:00:00 17 0 Calma 2 Norte 0 -- -- 95
2017-07-23 07:00:00 16.8 0 Calma 2 Norte 0 -- -- 95
2017-07-23 06:00:00 16.8 0 Calma 2 Sur 0 -- -- 95
2017-07-23 05:00:00 16.9 0 Calma 3 Noroeste 0 -- -- 95
2017-07-23 04:00:00 16.9 0 Calma 3 Norte 0 -- -- 95
2017-07-23 03:00:00 16.9 0 Calma 2 Sur 0 -- -- 94
2017-07-23 02:00:00 17.3 0 Calma 4 Norte 0 -- -- 94
2017-07-23 01:00:00 17.4 0 Calma 3 Sudeste 0 -- -- 94
2017-07-23 00:00:00 17.8 0 Calma 4 Este 0 -- -- 93
2017-07-22 23:00:00 18 0 Calma 6 Sur 0.2 -- -- 92
2017-07-22 22:00:00 18.7 4 Sudoeste 13 Norte 0.4 -- -- 88
2017-07-22 21:00:00 20.1 0 Calma 11 Noroeste 0 -- -- 80
2017-07-22 20:00:00 20.5 3 Norte 14 Norte 0 -- -- 78
2017-07-22 19:00:00 21.3 4 Norte 18 Noroeste 0 -- -- 76
2017-07-22 18:00:00 22.5 6 Noroeste 22 Noroeste 0 -- -- 72
2017-07-22 17:00:00 23.4 6 Norte 16 Noroeste 0 -- -- 64
2017-07-22 16:00:00 23.5 6 Norte 20 Oeste 0 -- -- 63
2017-07-22 15:00:00 24 10 Noroeste 22 Noroeste 0 -- -- 58
2017-07-22 14:00:00 24 7 Norte 17 Noroeste 0 -- -- 56
2017-07-22 13:00:00 23 0 Calma 2 Oeste 0 -- -- 62
2017-07-22 12:00:00 20.6 0 Calma 0 Calma 0.2 -- -- 78
2017-07-22 11:00:00 18.8 0 Calma 0 Calma 0 -- -- 81
2017-07-22 10:00:00 17 0 Calma 0 Calma 0 -- -- 90
2017-07-22 09:00:00 15.7 0 Calma 0 Calma 0 -- -- 94
2017-07-22 08:00:00 14.7 0 Calma 0 Calma 0 -- -- 97
2017-07-22 07:00:00 14 0 Calma 0 Calma 0 -- -- 97
2017-07-22 06:00:00 14 0 Calma 0 Calma 0 -- -- 95
2017-07-22 05:00:00 14.3 0 Calma 3 Noroeste 0 -- -- 97
2017-07-22 04:00:00 13.8 0 Calma 3 Sudeste 0 -- -- 97
2017-07-22 03:00:00 13.4 0 Calma 4 Este 0 -- -- 97
2017-07-22 02:00:00 12.9 0 Calma 4 Sudoeste 0 -- -- 95
2017-07-22 01:00:00 13.5 0 Calma 4 Este 0 -- -- 94
2017-07-22 00:00:00 14.5 0 Calma 5 Sudeste 0 -- -- 92
2017-07-21 23:00:00 16 3 Sudeste 6 Sudeste 0 -- -- 89
2017-07-21 22:00:00 18.1 2 Sudeste 6 Noroeste 0 -- -- 84
2017-07-21 21:00:00 19.6 0 Calma 7 Norte 0 -- -- 75
2017-07-21 20:00:00 20.3 3 Este 8 Este 0 -- -- 70
2017-07-21 19:00:00 20.3 4 Nordeste 10 Noroeste 0 -- -- 69
2017-07-21 18:00:00 20.1 4 Nordeste 11 Noroeste 0 -- -- 68
2017-07-21 17:00:00 20.1 5 Norte 12 Noroeste 0 -- -- 68
2017-07-21 16:00:00 20.4 2 Norte 9 Nordeste 0 -- -- 72
2017-07-21 15:00:00 20.6 3 Norte 7 Norte 0 -- -- 71
2017-07-21 14:00:00 19.9 2 Noroeste 6 Noroeste 0 -- -- 74
2017-07-21 13:00:00 19.5 2 Este 8 Oeste 0 -- -- 76
2017-07-21 12:00:00 18.6 2 Noroeste 7 Oeste 0 -- -- 82
2017-07-21 11:00:00 17.7 0 Calma 4 Sudoeste 0 -- -- 88
2017-07-21 10:00:00 16.9 0 Calma 3 Sudoeste 0 -- -- 93
2017-07-21 09:00:00 16.5 0 Calma 2 Sudeste 0 -- -- 95
2017-07-21 08:00:00 16.2 0 Calma 3 Este 0 -- -- 95
2017-07-21 07:00:00 16.3 0 Calma 3 Este 0 -- -- 96
2017-07-21 06:00:00 16.3 3 Sur 7 Este 0 -- -- 95
2017-07-21 05:00:00 16.5 0 Calma 4 Sudoeste 0.2 -- -- 95
2017-07-21 04:00:00 16.5 0 Calma 2 Nordeste 0 -- -- 94
2017-07-21 03:00:00 16.5 0 Calma 2 Sudeste 0 -- -- 94
2017-07-21 02:00:00 16.5 0 Calma 3 Sur 0 -- -- 93
2017-07-21 01:00:00 16.6 0 Calma 3 Sudeste 0 -- -- 93
2017-07-21 00:00:00 17 0 Calma 5 Este 0 -- -- 91
2017-07-20 23:00:00 17.3 0 Calma 4 Este 0 -- -- 90
2017-07-20 22:00:00 17.7 0 Calma 3 Nordeste 0.2 -- -- 87
2017-07-20 21:00:00 18.2 0 Calma 9 Nordeste 0 -- -- 82
2017-07-20 20:00:00 18.6 0 Calma 6 Sudoeste 0 -- -- 82
2017-07-20 19:00:00 18.8 4 Oeste 12 Noroeste 0 -- -- 83
2017-07-20 18:00:00 19.1 3 Noroeste 14 Oeste 0 -- -- 82
2017-07-20 17:00:00 18.6 4 Norte 15 Noroeste 0 -- -- 80
2017-07-20 16:00:00 19.2 4 Noroeste 17 Noroeste 0 -- -- 83
2017-07-20 15:00:00 18.7 6 Norte 14 Norte 0 -- -- 83
2017-07-20 14:00:00 19.5 4 Noroeste 15 Noroeste 0 -- -- 83
2017-07-20 13:00:00 19 4 Norte 10 Norte 0.2 -- -- 88
2017-07-20 12:00:00 18.4 2 Norte 10 Oeste 0 -- -- 89
2017-07-20 11:00:00 18.2 5 Sudoeste 9 Sudoeste 0.2 -- -- 91
2017-07-20 10:00:00 18 3 Sudoeste 6 Sudoeste 0.4 -- -- 94
2017-07-20 09:00:00 17.9 0 Calma 0 Calma 0 -- -- 93
2017-07-20 08:00:00 17.8 0 Calma 0 Calma 0 -- -- 94
2017-07-20 07:00:00 17.5 0 Calma 0 Calma 0.2 -- -- 93
2017-07-20 06:00:00 17.7 0 Calma 2 Sur 0 -- -- 92
2017-07-20 05:00:00 17.8 0 Calma 8 Sur 0 -- -- 90
2017-07-20 04:00:00 18.1 6 Sudoeste 13 Oeste 0 -- -- 89
2017-07-20 03:00:00 18.7 5 Oeste 11 Sur 0 -- -- 85
2017-07-20 02:00:00 19 5 Sudoeste 15 Noroeste 0 -- -- 84
2017-07-20 01:00:00 19 0 Calma 4 Noroeste 0 -- -- 92
2017-07-20 00:00:00 18.9 0 Calma 3 Sur 0 -- -- 92
2017-07-19 23:00:00 19.4 0 Calma 4 Sudeste 0 -- -- 91
2017-07-19 22:00:00 20.3 3 Sudeste 6 Norte 0 -- -- 87
2017-07-19 21:00:00 22.2 0 Calma 7 Nordeste 0 -- -- 81
2017-07-19 20:00:00 23.3 6 Noroeste 16 Norte 0 -- -- 73
2017-07-19 19:00:00 23.3 6 Norte 18 Noroeste 0 -- -- 76
2017-07-19 18:00:00 23.2 4 Norte 11 Noroeste 0 -- -- 74
2017-07-19 17:00:00 23 4 Nordeste 12 Norte 0 -- -- 74
2017-07-19 16:00:00 22.9 5 Noroeste 12 Norte 0 -- -- 74
2017-07-19 15:00:00 22.6 6 Noroeste 14 Noroeste 0 -- -- 81
2017-07-19 14:00:00 22.2 6 Noroeste 13 Noroeste 0 -- -- 82
2017-07-19 13:00:00 22.3 6 Norte 14 Noroeste 0 -- -- 82
2017-07-19 12:00:00 22.8 5 Noroeste 15 Noroeste 0 -- -- 83
2017-07-19 11:00:00 22.6 5 Noroeste 13 Noroeste 0 -- -- 83
2017-07-19 10:00:00 20.7 2 Sudoeste 6 Oeste 0 -- -- 91
2017-07-19 09:00:00 19.9 3 Oeste 5 Oeste 0 -- -- 94
2017-07-19 08:00:00 19.4 0 Calma 5 Sur 0 -- -- 96
2017-07-19 07:00:00 19.4 2 Sudeste 7 Este 0.2 -- -- 95
2017-07-19 06:00:00 19.6 0 Calma 5 Oeste 0 -- -- 95
2017-07-19 05:00:00 19.9 0 Calma 3 Sur 0 -- -- 96
2017-07-19 04:00:00 19.9 0 Calma 3 Sur 0 -- -- 96
2017-07-19 03:00:00 20 0 Calma 5 Oeste 0 -- -- 96
2017-07-19 02:00:00 20 0 Calma 4 Este 0 -- -- 96
2017-07-19 01:00:00 20 2 Sudeste 9 Norte 0 -- -- 95
2017-07-19 00:00:00 20.1 4 Nordeste 22 Oeste 0.2 -- -- 94